Time;durP1;ratioP1;P1;durP2;ratioP2;P2;SDS_P1;SDS_P2;PMS_P1;PMS_P2;Temp;Humidity;BMP_temperature;BMP_pressure;BME280_temperature;BME280_humidity;BME280_pressure;Samples;Min_cycle;Max_cycle;Signal;HPM_P1;HPM_P2
2022/11/13 00:01:13;;;;;;;41.97;23.80;;;;;;;7.55;67.84;102508.13;4974293;28;20047;-65
2022/11/13 00:03:40;;;;;;;44.65;25.00;;;;;;;7.55;67.94;102503.63;4974297;28;20054;-65
2022/11/13 00:06:06;;;;;;;48.08;27.92;;;;;;;7.38;68.46;102510.03;4973973;28;20047;-65
2022/11/13 00:08:33;;;;;;;43.50;25.60;;;;;;;7.57;67.90;102506.19;4973543;28;20047;-66
2022/11/13 00:11:14;;;;;;;49.72;24.90;;;;;;;7.58;68.13;102514.13;4974174;28;20055;-66
2022/11/13 00:13:42;;;;;;;46.42;23.77;;;;;;;7.58;68.20;102514.13;4973112;28;20506;-66
2022/11/13 00:16:14;;;;;;;40.60;23.90;;;;;;;7.56;67.89;102515.19;4974002;28;20042;-66
2022/11/13 00:18:41;;;;;;;39.90;22.75;;;;;;;7.43;68.70;102515.13;4973713;28;20129;-66
2022/11/13 00:21:12;;;;;;;46.85;24.77;;;;;;;7.53;68.62;102516.22;4973857;28;20047;-66
2022/11/13 00:23:39;;;;;;;42.33;24.90;;;;;;;7.70;67.83;102517.84;4973378;28;20047;-66
2022/11/13 00:26:17;;;;;;;44.47;23.45;;;;;;;7.73;67.96;102512.28;4973433;28;20046;-66
2022/11/13 00:28:44;;;;;;;48.33;24.63;;;;;;;7.74;68.06;102506.03;4973531;28;20042;-66
2022/11/13 00:31:13;;;;;;;45.85;25.38;;;;;;;7.75;67.84;102504.19;4973951;28;20039;-66
2022/11/13 00:33:40;;;;;;;41.67;24.15;;;;;;;7.67;68.23;102502.00;4972815;28;20050;-66
2022/11/13 00:36:27;;;;;;;40.95;23.10;;;;;;;7.72;68.49;102499.06;4972891;28;20585;-66
2022/11/13 00:38:54;;;;;;;43.85;24.40;;;;;;;7.76;68.01;102495.22;4973147;28;20042;-66
2022/11/13 00:41:22;;;;;;;38.55;24.50;;;;;;;7.77;68.07;102495.09;4973184;28;20051;-65
2022/11/13 00:43:48;;;;;;;42.28;24.98;;;;;;;7.84;68.10;102492.94;4973265;28;20047;-65
2022/11/13 00:46:15;;;;;;;42.70;24.23;;;;;;;7.84;68.26;102488.44;4973116;28;20051;-65
2022/11/13 00:48:41;;;;;;;43.08;23.05;;;;;;;7.78;68.37;102506.69;4973282;28;20067;-66
2022/11/13 00:51:08;;;;;;;41.75;24.73;;;;;;;7.63;68.74;102495.13;4973346;28;20039;-65
2022/11/13 00:53:34;;;;;;;44.75;25.63;;;;;;;7.75;68.62;102493.50;4972605;28;20053;-65
2022/11/13 00:56:01;;;;;;;45.35;25.17;;;;;;;7.80;68.17;102481.56;4965524;28;20042;-65
2022/11/13 00:58:28;;;;;;;41.47;24.38;;;;;;;7.94;68.03;102485.19;4953880;28;20062;-64
2022/11/13 01:01:06;;;;;;;40.38;23.85;;;;;;;7.96;68.03;102478.78;4952889;28;20056;-64
2022/11/13 01:03:32;;;;;;;38.65;23.92;;;;;;;7.98;67.82;102468.00;4953289;28;20047;-65
2022/11/13 01:05:59;;;;;;;41.10;23.40;;;;;;;7.83;68.57;102476.03;4953713;28;20431;-66
2022/11/13 01:08:25;;;;;;;40.88;23.48;;;;;;;7.91;68.09;102478.22;4953612;28;20133;-65
2022/11/13 01:10:53;;;;;;;41.13;22.70;;;;;;;7.98;67.97;102473.34;4953122;28;20492;-65
2022/11/13 01:13:19;;;;;;;35.00;22.15;;;;;;;7.99;68.07;102470.56;4953345;28;20058;-66
2022/11/13 01:15:46;;;;;;;40.08;21.70;;;;;;;7.95;68.18;102463.72;4953066;28;20051;-65
2022/11/13 01:18:12;;;;;;;38.55;23.15;;;;;;;7.88;68.39;102457.91;4954128;28;20047;-64
2022/11/13 01:20:39;;;;;;;35.90;22.08;;;;;;;8.02;67.96;102462.34;4953174;28;20047;-66
2022/11/13 01:23:06;;;;;;;40.25;23.15;;;;;;;7.99;68.29;102462.56;4952838;28;20051;-65
2022/11/13 01:25:33;;;;;;;37.90;22.45;;;;;;;8.06;67.88;102461.19;4953201;28;21406;-66
2022/11/13 01:27:59;;;;;;;35.03;21.08;;;;;;;8.09;67.80;102458.31;4945607;28;20055;-66
2022/11/13 01:30:25;;;;;;;37.58;21.58;;;;;;;8.07;67.76;102460.22;4952816;28;20059;-65
2022/11/13 01:32:52;;;;;;;37.60;22.10;;;;;;;8.09;67.94;102455.66;4952741;28;20500;-66
2022/11/13 01:35:18;;;;;;;34.75;22.23;;;;;;;7.93;68.50;102454.94;4952176;28;20047;-67
2022/11/13 01:37:45;;;;;;;39.50;20.25;;;;;;;8.04;68.13;102456.91;4952984;28;20134;-65
2022/11/13 01:40:13;;;;;;;38.08;22.55;;;;;;;8.10;68.03;102452.00;4953227;28;20059;-67
2022/11/13 01:42:39;;;;;;;37.17;21.88;;;;;;;8.20;67.60;102449.59;4952637;28;20043;-65
2022/11/13 01:46:03;;;;;;;39.55;20.40;;;;;;;7.95;68.57;102447.69;4944732;28;20047;-65
2022/11/13 01:48:37;;;;;;;36.58;21.33;;;;;;;8.01;68.50;102447.25;4931282;29;20063;-65
2022/11/13 01:51:10;;;;;;;43.13;22.55;;;;;;;7.81;69.05;102436.97;4931491;29;20067;-65
2022/11/13 01:53:37;;;;;;;37.50;20.90;;;;;;;8.11;68.45;102443.03;4930960;29;20524;-65
2022/11/13 01:56:04;;;;;;;36.03;20.30;;;;;;;8.16;67.90;102436.50;4942405;28;20055;-64
2022/11/13 01:58:30;;;;;;;36.45;20.95;;;;;;;8.18;68.00;102437.28;4950282;28;20047;-67
2022/11/13 02:00:57;;;;;;;36.38;19.40;;;;;;;7.96;68.56;102433.34;4950460;28;20051;-65
2022/11/13 02:03:23;;;;;;;32.25;19.67;;;;;;;8.03;68.37;102425.78;4950717;28;20051;-67
2022/11/13 02:09:45;;;;;;;32.17;18.60;;;;;;;8.08;68.43;102429.00;4949679;28;20042;-66
2022/11/13 02:12:14;;;;;;;37.08;20.10;;;;;;;8.12;68.37;102419.81;4950593;28;20063;-66
2022/11/13 02:14:53;;;;;;;30.38;19.02;;;;;;;8.16;68.52;102423.13;4950037;28;20408;-66
2022/11/13 02:17:28;;;;;;;32.83;19.35;;;;;;;8.05;68.29;102438.09;4950218;28;20055;-66
2022/11/13 02:19:59;;;;;;;30.17;18.23;;;;;;;8.06;68.29;102426.44;4949902;28;20051;-66
2022/11/13 02:22:37;;;;;;;26.63;18.93;;;;;;;7.89;69.03;102421.34;4962623;28;20514;-66
2022/11/13 02:25:05;;;;;;;31.83;18.58;;;;;;;8.10;68.85;102422.59;4971902;28;20055;-66
2022/11/13 02:27:49;;;;;;;29.35;17.60;;;;;;;7.80;69.06;102427.25;4971758;28;20069;-66
2022/11/13 02:30:19;;;;;;;35.22;17.35;;;;;;;8.00;68.72;102413.47;4971309;28;20162;-66
2022/11/13 02:32:54;;;;;;;26.63;16.90;;;;;;;7.79;69.05;102414.88;4971195;28;20046;-66
2022/11/13 02:35:22;;;;;;;32.80;16.42;;;;;;;8.16;68.52;102410.66;4971599;28;20050;-65
2022/11/13 02:37:48;;;;;;;26.23;16.67;;;;;;;8.21;68.24;102410.34;4971656;28;20053;-65
2022/11/13 02:40:16;;;;;;;32.78;17.02;;;;;;;8.07;68.46;102412.09;4971741;28;20058;-65
2022/11/13 02:42:42;;;;;;;26.73;16.33;;;;;;;8.19;68.31;102412.25;4971330;28;20046;-66
2022/11/13 02:45:09;;;;;;;27.13;16.92;;;;;;;8.22;67.97;102402.19;4971734;28;20412;-66
2022/11/13 02:47:35;;;;;;;29.55;15.55;;;;;;;8.21;68.25;102397.81;4971048;28;20049;-66
2022/11/13 02:50:03;;;;;;;23.50;16.63;;;;;;;8.21;68.34;102399.63;4971480;28;20047;-67
2022/11/13 02:52:30;;;;;;;28.98;16.50;;;;;;;8.24;68.26;102394.09;4971693;28;20074;-66
2022/11/13 02:54:56;;;;;;;28.83;16.50;;;;;;;8.15;68.60;102390.19;4970828;28;20046;-65
2022/11/13 02:57:23;;;;;;;32.50;16.75;;;;;;;8.06;68.41;102386.34;4955854;28;20051;-66
2022/11/13 02:59:49;;;;;;;27.20;16.75;;;;;;;8.03;68.64;102386.56;4955667;28;20050;-65
2022/11/13 03:02:16;;;;;;;27.67;16.98;;;;;;;7.94;68.74;102376.47;4955361;28;20423;-64
2022/11/13 03:04:43;;;;;;;25.65;15.73;;;;;;;8.12;68.69;102377.94;4956720;28;20047;-65
2022/11/13 03:07:30;;;;;;;27.95;16.20;;;;;;;8.10;68.81;102379.84;4955490;28;20055;-65
2022/11/13 03:09:56;;;;;;;25.75;16.45;;;;;;;8.09;68.51;102377.28;4955400;28;20051;-65
2022/11/13 03:12:23;;;;;;;27.83;15.98;;;;;;;8.28;67.75;102385.75;4955711;28;20055;-65
2022/11/13 03:14:49;;;;;;;27.42;16.65;;;;;;;7.90;69.15;102380.31;4955866;28;20425;-65
2022/11/13 03:17:16;;;;;;;28.48;17.15;;;;;;;8.16;68.30;102375.00;4955682;28;20066;-65
2022/11/13 03:19:42;;;;;;;23.88;16.17;;;;;;;8.12;68.30;102375.25;4956038;28;20380;-65
2022/11/13 03:22:08;;;;;;;25.95;16.05;;;;;;;8.31;67.98;102374.00;4954277;28;20054;-65
2022/11/13 03:24:35;;;;;;;31.92;16.60;;;;;;;7.94;68.57;102365.78;4955389;28;20047;-65
2022/11/13 03:27:02;;;;;;;29.10;16.42;;;;;;;8.30;67.49;102372.28;4955399;28;20043;-66
2022/11/13 03:29:28;;;;;;;24.65;16.20;;;;;;;8.17;68.34;102374.06;4955319;28;20047;-65
2022/11/13 03:31:55;;;;;;;30.67;15.85;;;;;;;8.20;67.60;102372.06;4955354;28;20043;-65
2022/11/13 03:34:21;;;;;;;23.63;15.15;;;;;;;8.23;67.80;102368.31;4954969;28;20058;-65
2022/11/13 03:36:48;;;;;;;21.15;16.00;;;;;;;8.34;67.27;102368.44;4955299;28;20054;-65
2022/11/13 03:39:14;;;;;;;29.20;15.98;;;;;;;8.25;67.53;102371.72;4952861;28;20054;-68
2022/11/13 03:41:41;;;;;;;25.98;16.02;;;;;;;8.29;67.80;102371.41;4954811;28;20051;-65
2022/11/13 03:44:07;;;;;;;22.08;16.02;;;;;;;8.35;67.42;102370.13;4954711;28;20047;-66
2022/11/13 03:46:33;;;;;;;25.10;15.00;;;;;;;8.24;67.82;102378.03;4953909;28;20052;-66
2022/11/13 03:49:00;;;;;;;23.70;16.17;;;;;;;8.17;67.86;102382.09;4955012;28;20051;-66
2022/11/13 03:51:26;;;;;;;24.50;15.90;;;;;;;8.24;67.27;102373.56;4954928;28;20055;-64
2022/11/13 03:53:53;;;;;;;24.35;14.85;;;;;;;8.32;67.20;102381.03;4955207;28;20047;-65
2022/11/13 03:56:19;;;;;;;21.92;14.57;;;;;;;8.28;67.17;102375.03;4968554;28;20062;-65
2022/11/13 03:58:46;;;;;;;25.40;16.23;;;;;;;8.26;67.46;102378.78;4973175;28;20050;-66
2022/11/13 04:01:15;;;;;;;23.85;14.95;;;;;;;8.30;67.06;102377.63;4974213;28;20050;-68
2022/11/13 04:03:41;;;;;;;24.23;15.50;;;;;;;8.36;67.13;102378.06;4974014;28;20055;-66
2022/11/13 04:06:08;;;;;;;25.35;15.23;;;;;;;8.37;67.12;102385.13;4973234;28;20522;-66
2022/11/13 04:08:34;;;;;;;25.45;14.85;;;;;;;8.29;67.07;102383.91;4973230;28;20062;-65
2022/11/13 04:11:06;;;;;;;21.17;13.80;;;;;;;8.27;67.21;102370.66;4973824;28;20053;-67
2022/11/13 04:13:32;;;;;;;20.77;14.35;;;;;;;8.29;66.89;102374.06;4973855;28;20053;-65
2022/11/13 04:15:58;;;;;;;22.30;14.52;;;;;;;8.12;67.47;102369.91;4973556;28;20061;-65
2022/11/13 04:18:25;;;;;;;22.85;14.43;;;;;;;8.38;67.04;102369.94;4973755;28;20057;-65
2022/11/13 04:21:01;;;;;;;21.60;14.73;;;;;;;8.45;66.75;102360.53;4973763;28;20043;-65
2022/11/13 04:23:28;;;;;;;23.77;15.23;;;;;;;8.34;67.03;102361.25;4973834;28;20067;-66
2022/11/13 04:25:54;;;;;;;26.02;15.35;;;;;;;8.29;67.42;102352.69;4972722;28;20510;-65
2022/11/13 04:28:21;;;;;;;22.35;14.77;;;;;;;8.34;66.91;102357.75;4973797;28;20046;-66
2022/11/13 04:30:47;;;;;;;23.02;14.98;;;;;;;8.18;67.43;102357.91;4973673;28;20054;-66
2022/11/13 04:33:14;;;;;;;20.65;14.63;;;;;;;8.01;67.35;102353.72;4974210;28;20526;-65
2022/11/13 04:35:44;;;;;;;25.42;15.35;;;;;;;8.04;67.79;102349.97;4972479;28;20049;-66
2022/11/13 04:38:11;;;;;;;25.27;15.38;;;;;;;8.11;67.44;102338.75;4973791;28;20050;-67
2022/11/13 04:40:38;;;;;;;21.35;14.27;;;;;;;8.29;66.89;102352.69;4973305;28;20053;-66
2022/11/13 04:43:05;;;;;;;21.17;15.05;;;;;;;8.32;66.37;102343.59;4964469;28;20086;-68
2022/11/13 04:45:32;;;;;;;22.20;14.50;;;;;;;8.33;66.66;102338.16;4973339;28;20427;-66
2022/11/13 04:47:58;;;;;;;25.95;15.18;;;;;;;8.07;67.56;102339.94;4972844;28;20076;-66
2022/11/13 04:50:25;;;;;;;26.02;15.98;;;;;;;8.01;67.39;102345.69;4973128;28;20054;-66
2022/11/13 04:52:52;;;;;;;24.13;16.17;;;;;;;8.01;67.54;102347.50;4972728;28;20053;-66
2022/11/13 04:55:18;;;;;;;25.45;16.35;;;;;;;8.12;67.31;102351.19;4967571;28;20054;-66
2022/11/13 04:57:45;;;;;;;26.85;15.18;;;;;;;8.13;67.25;102341.34;4954145;28;20043;-67
2022/11/13 05:00:12;;;;;;;25.73;15.60;;;;;;;7.57;68.78;102335.25;4954171;28;20062;-66
2022/11/13 05:02:38;;;;;;;22.65;15.27;;;;;;;7.55;69.18;102350.56;4953979;28;20043;-64
2022/11/13 05:05:05;;;;;;;24.38;16.20;;;;;;;7.70;68.86;102343.34;4954055;28;20419;-66
2022/11/13 05:07:32;;;;;;;22.20;14.75;;;;;;;8.14;67.67;102335.88;4953705;28;20054;-65
2022/11/13 05:09:58;;;;;;;26.42;15.38;;;;;;;8.20;67.59;102349.81;4952820;28;20051;-67
2022/11/13 05:12:25;;;;;;;25.58;16.23;;;;;;;8.23;66.96;102346.94;4952179;28;20078;-65
2022/11/13 05:14:51;;;;;;;19.13;14.45;;;;;;;8.18;67.04;102347.22;4953876;28;20047;-67
2022/11/13 05:17:18;;;;;;;26.00;15.23;;;;;;;8.19;66.86;102348.94;4953366;28;20058;-65
2022/11/13 05:19:44;;;;;;;20.33;14.40;;;;;;;8.26;66.76;102349.38;4954045;28;20051;-67
2022/11/13 05:22:11;;;;;;;22.17;14.88;;;;;;;8.15;66.77;102350.09;4953358;28;20055;-66
2022/11/13 05:24:37;;;;;;;25.05;14.27;;;;;;;8.10;67.39;102349.56;4953611;28;20055;-65
2022/11/13 05:27:03;;;;;;;31.55;14.80;;;;;;;8.23;66.76;102346.94;4952935;28;20051;-65
2022/11/13 05:29:30;;;;;;;19.95;13.68;;;;;;;8.25;66.51;102340.50;4953650;28;20062;-67
2022/11/13 05:31:56;;;;;;;22.65;14.05;;;;;;;8.32;66.21;102343.59;4953452;28;20491;-66
2022/11/13 05:34:23;;;;;;;23.27;13.90;;;;;;;8.21;66.78;102340.81;4951995;28;20058;-67
2022/11/13 05:36:49;;;;;;;27.85;14.65;;;;;;;8.35;66.31;102340.72;4953172;28;20051;-67
2022/11/13 05:39:16;;;;;;;26.40;13.10;;;;;;;8.17;66.79;102334.81;4953687;28;20058;-66
2022/11/13 05:41:42;;;;;;;22.20;13.38;;;;;;;8.19;66.71;102343.56;4953630;28;20046;-66
2022/11/13 05:44:08;;;;;;;24.77;13.73;;;;;;;8.16;66.45;102332.25;4953187;28;20066;-66
2022/11/13 05:46:35;;;;;;;21.52;12.85;;;;;;;8.09;66.82;102338.03;4953016;28;20516;-66
2022/11/13 05:49:02;;;;;;;28.60;13.50;;;;;;;7.93;66.96;102339.16;4952718;28;20043;-66
2022/11/13 05:51:31;;;;;;;25.02;13.27;;;;;;;8.12;66.57;102337.81;4952957;28;20051;-66
2022/11/13 05:53:58;;;;;;;21.38;13.25;;;;;;;8.17;66.13;102329.47;4952284;28;20047;-66
2022/11/13 05:56:28;;;;;;;26.35;13.75;;;;;;;8.22;66.19;102326.47;4966895;28;20102;-67
2022/11/13 05:58:56;;;;;;;20.27;13.70;;;;;;;8.22;65.90;102331.81;4971650;28;20422;-66
2022/11/13 06:01:26;;;;;;;22.95;14.18;;;;;;;8.01;66.57;102318.97;4972378;28;20105;-67
2022/11/13 06:03:55;;;;;;;25.23;15.40;;;;;;;7.94;66.92;102325.69;4971913;28;20053;-66
2022/11/13 06:06:23;;;;;;;27.52;15.38;;;;;;;7.84;67.26;102327.28;4971528;28;20051;-66
2022/11/13 06:08:51;;;;;;;28.42;15.20;;;;;;;7.81;67.59;102322.09;4971562;28;20049;-66
2022/11/13 06:11:21;;;;;;;25.33;15.18;;;;;;;8.02;67.11;102315.34;4971321;28;20054;-68
2022/11/13 06:13:49;;;;;;;24.33;15.95;;;;;;;7.93;67.44;102310.63;4971737;28;20054;-67
2022/11/13 06:16:19;;;;;;;23.92;15.48;;;;;;;8.07;66.93;102317.72;4971916;28;20396;-67
2022/11/13 06:18:47;;;;;;;23.63;15.07;;;;;;;7.99;67.31;102314.72;4970874;28;20054;-67
2022/11/13 06:21:14;;;;;;;24.85;16.02;;;;;;;7.98;67.06;102310.31;4965508;28;20057;-67
2022/11/13 06:23:41;;;;;;;22.83;14.95;;;;;;;8.17;66.85;102312.59;4981924;28;20510;-66
2022/11/13 06:26:16;;;;;;;24.83;16.25;;;;;;;8.14;66.87;102308.31;4970946;28;20093;-66
2022/11/13 06:28:43;;;;;;;24.35;16.63;;;;;;;8.14;67.00;102300.28;4970750;28;20495;-66
2022/11/13 06:31:21;;;;;;;27.27;16.50;;;;;;;8.05;67.49;102299.13;4974606;28;20058;-66
2022/11/13 06:33:48;;;;;;;22.63;16.20;;;;;;;8.12;67.34;102308.41;4975057;28;20074;-67
2022/11/13 06:36:23;;;;;;;22.40;17.15;;;;;;;8.17;67.25;102299.22;4974890;28;20058;-67
2022/11/13 06:38:50;;;;;;;27.23;17.80;;;;;;;7.96;67.89;102294.38;4974521;28;20046;-69
2022/11/13 06:41:19;;;;;;;27.10;17.83;;;;;;;7.95;67.97;102300.69;4975023;28;20491;-66
2022/11/13 06:43:46;;;;;;;29.67;18.48;;;;;;;8.04;67.69;102297.38;4975095;28;20042;-67
2022/11/13 06:46:15;;;;;;;24.85;16.80;;;;;;;7.72;68.74;102290.69;4974760;28;20050;-66
2022/11/13 06:48:42;;;;;;;29.02;18.67;;;;;;;7.79;68.76;102291.97;4974645;28;20042;-66
2022/11/13 06:51:13;;;;;;;27.55;19.30;;;;;;;7.92;68.51;102298.22;4974674;28;20051;-66
2022/11/13 06:53:39;;;;;;;28.55;19.30;;;;;;;7.81;68.99;102288.25;4974193;28;21569;-66
2022/11/13 06:56:06;;;;;;;31.77;18.85;;;;;;;8.07;68.23;102291.81;4963111;28;20047;-68
2022/11/13 06:58:33;;;;;;;35.70;21.55;;;;;;;8.13;68.02;102291.41;4955555;28;20451;-67
2022/11/13 07:01:11;;;;;;;28.75;20.75;;;;;;;8.05;68.33;102287.53;4955480;28;20047;-66
2022/11/13 07:03:38;;;;;;;30.92;20.17;;;;;;;8.10;67.85;102291.63;4956209;28;20153;-66
2022/11/13 07:06:07;;;;;;;31.52;20.55;;;;;;;8.02;68.25;102282.41;4953959;28;20736;-66
2022/11/13 07:08:33;;;;;;;28.83;20.23;;;;;;;8.06;68.25;102283.94;4955550;28;20062;-67
2022/11/13 07:11:00;;;;;;;32.28;20.65;;;;;;;8.08;68.33;102287.34;4955288;28;20055;-67
2022/11/13 07:13:27;;;;;;;34.80;23.00;;;;;;;7.93;68.76;102277.72;4955052;28;20067;-66
2022/11/13 07:15:54;;;;;;;36.90;25.35;;;;;;;7.88;69.73;102275.31;4957409;28;20464;-66
2022/11/13 07:18:21;;;;;;;38.53;27.52;;;;;;;7.85;69.72;102271.06;4957369;28;20059;-70
2022/11/13 07:20:49;;;;;;;37.85;27.08;;;;;;;7.84;69.27;102277.34;4955183;28;20135;-66
2022/11/13 07:23:16;;;;;;;41.80;28.80;;;;;;;7.63;70.33;102265.41;4954679;28;20051;-66
2022/11/13 07:25:42;;;;;;;46.65;32.58;;;;;;;7.78;70.03;102274.25;4954519;28;20381;-66
2022/11/13 07:28:09;;;;;;;43.97;30.58;;;;;;;7.87;69.98;102274.47;4954747;28;20054;-66
2022/11/13 07:30:35;;;;;;;45.30;32.42;;;;;;;7.99;69.60;102269.28;4955612;28;20047;-66
2022/11/13 07:33:02;;;;;;;42.58;28.73;;;;;;;8.00;69.69;102271.84;4955393;28;20054;-67
2022/11/13 07:35:29;;;;;;;49.05;30.55;;;;;;;8.03;69.39;102273.44;4955135;28;20059;-67
2022/11/13 07:37:57;;;;;;;46.22;28.95;;;;;;;8.20;69.05;102277.63;4953528;28;20047;-66
2022/11/13 07:40:24;;;;;;;42.38;26.52;;;;;;;8.02;69.34;102272.59;4953796;28;20058;-67
2022/11/13 07:43:01;;;;;;;39.80;27.92;;;;;;;7.87;70.00;102276.28;4954522;28;20464;-67
2022/11/13 07:45:28;;;;;;;39.15;26.65;;;;;;;8.12;69.25;102279.00;4954517;28;20051;-66
2022/11/13 07:48:02;;;;;;;41.67;26.23;;;;;;;8.11;69.07;102277.28;4953999;28;20051;-66
2022/11/13 07:50:33;;;;;;;43.30;26.02;;;;;;;8.06;69.88;102276.75;4954001;28;20074;-68
2022/11/13 07:53:02;;;;;;;41.42;27.25;;;;;;;8.06;69.50;102268.75;4954069;28;20047;-68
2022/11/13 07:55:29;;;;;;;38.40;25.17;;;;;;;8.01;69.70;102270.00;4961305;28;20050;-66
2022/11/13 07:57:57;;;;;;;35.90;23.88;;;;;;;8.08;69.54;102268.63;4973471;28;20054;-67
2022/11/13 08:00:28;;;;;;;34.92;24.75;;;;;;;8.07;70.08;102270.44;4973448;28;20051;-68
2022/11/13 08:02:55;;;;;;;36.80;23.73;;;;;;;8.17;69.54;102267.16;4973043;28;20078;-66
2022/11/13 08:05:22;;;;;;;39.58;24.88;;;;;;;8.23;69.62;102264.06;4974217;28;20043;-66
2022/11/13 08:07:50;;;;;;;41.47;26.27;;;;;;;8.26;69.36;102277.19;4973834;28;20043;-66
2022/11/13 08:10:19;;;;;;;39.40;24.20;;;;;;;8.31;69.12;102270.56;4973919;28;20126;-65
2022/11/13 08:12:46;;;;;;;36.90;23.98;;;;;;;8.24;69.17;102271.94;4973303;28;20462;-66
2022/11/13 08:15:13;;;;;;;33.92;22.63;;;;;;;8.15;69.62;102267.22;4973007;28;20053;-67
2022/11/13 08:17:39;;;;;;;32.88;22.90;;;;;;;8.27;69.36;102274.41;4973736;28;20047;-67
2022/11/13 08:20:07;;;;;;;40.53;23.92;;;;;;;8.08;70.20;102273.97;4973564;28;20042;-68
2022/11/13 08:22:34;;;;;;;39.03;22.80;;;;;;;8.13;69.92;102264.69;4973292;28;20047;-67
2022/11/13 08:25:01;;;;;;;36.80;22.02;;;;;;;8.06;70.36;102271.41;4973484;28;20050;-68
2022/11/13 08:27:27;;;;;;;34.83;22.45;;;;;;;7.89;70.54;102255.69;4973201;28;20051;-66
2022/11/13 08:29:53;;;;;;;38.53;22.83;;;;;;;7.92;70.63;102263.50;4973435;28;20055;-66
2022/11/13 08:32:21;;;;;;;37.90;22.20;;;;;;;7.97;70.20;102269.38;4973802;28;20050;-67
2022/11/13 08:34:48;;;;;;;37.65;20.77;;;;;;;7.94;70.36;102266.03;4973475;28;20067;-68
2022/11/13 08:37:14;;;;;;;35.35;22.17;;;;;;;8.01;70.02;102265.50;4972785;28;20375;-66
2022/11/13 08:39:41;;;;;;;33.72;22.25;;;;;;;8.21;69.47;102268.63;4973199;28;20047;-67
2022/11/13 08:42:08;;;;;;;31.00;20.50;;;;;;;8.14;69.58;102262.84;4973134;28;20046;-67
2022/11/13 08:44:34;;;;;;;35.25;20.48;;;;;;;8.21;69.50;102256.13;4973209;28;20051;-68
2022/11/13 08:47:00;;;;;;;32.00;21.10;;;;;;;8.17;69.65;102259.13;4972843;28;20050;-66
2022/11/13 08:49:27;;;;;;;32.15;20.75;;;;;;;8.14;69.42;102258.38;4973140;28;20047;-66
2022/11/13 08:51:53;;;;;;;35.50;20.83;;;;;;;8.31;68.70;102261.69;4972961;28;20170;-65
2022/11/13 08:54:20;;;;;;;33.28;20.70;;;;;;;8.04;69.35;102261.78;4973459;28;20078;-67
2022/11/13 08:56:47;;;;;;;27.65;19.63;;;;;;;8.04;69.46;102265.31;4953429;28;20047;-68
2022/11/13 08:59:22;;;;;;;32.85;20.67;;;;;;;8.27;68.39;102262.88;4953184;28;20051;-67
2022/11/13 09:01:49;;;;;;;33.70;21.10;;;;;;;8.40;68.06;102270.84;4953680;28;20399;-66
2022/11/13 09:04:15;;;;;;;27.95;18.80;;;;;;;8.40;68.02;102265.50;4952825;28;20396;-67
2022/11/13 09:06:42;;;;;;;29.00;19.23;;;;;;;8.40;68.09;102261.03;4953103;28;20106;-66
2022/11/13 09:09:08;;;;;;;34.22;20.05;;;;;;;8.47;67.76;102256.97;4953031;28;20043;-66
2022/11/13 09:11:35;;;;;;;33.20;18.75;;;;;;;8.65;66.96;102257.47;4952992;28;20051;-68
2022/11/13 09:14:01;;;;;;;33.67;20.75;;;;;;;8.68;66.73;102257.25;4952909;28;20066;-67
2022/11/13 09:16:28;;;;;;;32.75;19.13;;;;;;;8.77;66.37;102256.56;4953098;28;20054;-66
2022/11/13 09:18:54;;;;;;;28.10;19.30;;;;;;;8.78;66.24;102246.72;4952738;28;20399;-67
2022/11/13 09:21:21;;;;;;;32.63;19.38;;;;;;;8.77;66.38;102251.22;4953655;28;20069;-66
2022/11/13 09:23:49;;;;;;;27.52;18.42;;;;;;;8.83;66.35;102252.59;4953090;28;20047;-67
2022/11/13 09:26:16;;;;;;;28.95;18.77;;;;;;;8.70;66.39;102254.47;4953048;28;20047;-67
2022/11/13 09:28:42;;;;;;;35.35;20.08;;;;;;;8.67;66.20;102255.53;4953002;28;20055;-66
2022/11/13 09:31:09;;;;;;;28.35;19.08;;;;;;;8.66;66.52;102252.97;4951814;28;20043;-67
2022/11/13 09:33:35;;;;;;;36.28;19.77;;;;;;;8.72;66.08;102252.53;4951995;28;20495;-66
2022/11/13 09:36:08;;;;;;;29.73;19.70;;;;;;;8.43;67.03;102250.09;4953284;28;20051;-67
2022/11/13 09:38:34;;;;;;;30.58;18.38;;;;;;;8.61;66.23;102247.97;4952343;28;20047;-67
2022/11/13 09:41:10;;;;;;;27.70;17.20;;;;;;;8.42;65.99;102237.72;4952450;28;20058;-65
2022/11/13 09:43:43;;;;;;;27.55;16.55;;;;;;;8.18;66.51;102250.97;4953110;28;20049;-66
2022/11/13 09:46:42;;;;;;;28.20;17.30;;;;;;;8.29;66.29;102245.72;4953014;28;20047;-66
2022/11/13 09:49:18;;;;;;;26.23;16.25;;;;;;;8.28;65.91;102237.84;4952292;28;20043;-66
2022/11/13 09:51:51;;;;;;;29.55;16.02;;;;;;;7.98;66.51;102240.81;4951805;28;20050;-65
2022/11/13 09:54:19;;;;;;;29.58;15.73;;;;;;;8.41;65.70;102246.69;4952994;28;20043;-67
2022/11/13 09:56:55;;;;;;;26.50;15.57;;;;;;;8.21;65.81;102242.75;4969379;28;20448;-66
2022/11/13 09:59:34;;;;;;;24.05;15.85;;;;;;;8.19;65.46;102239.31;4971410;28;20069;-67
2022/11/13 10:02:21;;;;;;;29.25;16.02;;;;;;;8.45;65.27;102245.50;4972311;28;20046;-67
2022/11/13 10:05:12;;;;;;;25.67;15.40;;;;;;;8.25;65.26;102238.91;4971427;28;20042;-67
2022/11/13 10:08:07;;;;;;;26.42;15.13;;;;;;;8.32;65.11;102226.81;4971844;28;20047;-67
2022/11/13 10:10:48;;;;;;;20.95;13.60;;;;;;;8.55;63.69;102221.66;4970423;28;20123;-67
2022/11/13 10:13:28;;;;;;;18.80;13.05;;;;;;;8.27;64.19;102217.41;4972267;28;20560;-67
2022/11/13 10:16:05;;;;;;;21.85;13.73;;;;;;;8.37;64.33;102222.00;4971740;28;20491;-68
2022/11/13 10:18:36;;;;;;;24.77;15.75;;;;;;;8.38;64.36;102215.66;4971577;28;20054;-67
2022/11/13 10:21:22;;;;;;;29.20;15.83;;;;;;;8.57;63.50;102219.69;4972261;28;20050;-68
2022/11/13 10:23:55;;;;;;;20.85;14.43;;;;;;;8.83;62.80;102207.13;4972131;28;20047;-67
2022/11/13 10:26:23;;;;;;;25.13;14.43;;;;;;;8.83;62.32;102209.78;4971902;28;20049;-65
2022/11/13 10:29:08;;;;;;;22.77;14.27;;;;;;;8.78;62.53;102214.59;4971863;28;20043;-66
2022/11/13 10:31:44;;;;;;;21.95;14.18;;;;;;;8.94;61.88;102203.66;4966337;28;20415;-65
2022/11/13 10:34:11;;;;;;;24.20;14.45;;;;;;;9.15;61.30;102206.56;4971838;28;20043;-67
2022/11/13 10:36:58;;;;;;;27.23;15.40;;;;;;;9.05;61.62;102201.03;4972018;28;20043;-67
2022/11/13 10:39:25;;;;;;;25.15;14.18;;;;;;;8.85;61.90;102199.84;4970472;28;20047;-68
2022/11/13 10:41:53;;;;;;;21.25;13.35;;;;;;;8.82;61.99;102200.06;4971643;28;20053;-66
2022/11/13 10:44:28;;;;;;;22.38;14.07;;;;;;;8.60;62.47;102198.06;4971913;28;20070;-68
2022/11/13 10:47:13;;;;;;;21.98;13.77;;;;;;;8.72;61.85;102196.34;4971379;28;20054;-65
2022/11/13 10:49:40;;;;;;;22.00;13.23;;;;;;;8.55;62.38;102195.75;4971265;28;20402;-67
2022/11/13 10:52:20;;;;;;;21.40;13.75;;;;;;;8.48;62.60;102198.97;4971107;28;20053;-66
2022/11/13 10:54:48;;;;;;;21.63;13.50;;;;;;;8.34;62.06;102189.28;4970617;28;20501;-68
2022/11/13 10:57:20;;;;;;;31.17;14.27;;;;;;;8.47;62.02;102192.78;4951102;28;20051;-67
2022/11/13 10:59:47;;;;;;;21.00;13.75;;;;;;;8.55;61.77;102187.72;4951434;28;20047;-69
2022/11/13 11:02:20;;;;;;;23.58;14.98;;;;;;;8.81;61.17;102179.59;4949697;28;20055;-68
2022/11/13 11:04:47;;;;;;;21.02;15.02;;;;;;;8.74;61.35;102178.34;4952222;28;20043;-69
2022/11/13 11:07:17;;;;;;;24.65;14.32;;;;;;;8.74;61.21;102173.84;4951487;28;20062;-67
2022/11/13 11:09:49;;;;;;;19.75;13.52;;;;;;;8.45;61.80;102169.78;4950736;28;20055;-69
2022/11/13 11:12:18;;;;;;;21.63;13.55;;;;;;;8.64;61.65;102171.97;4951593;28;20051;-69
2022/11/13 11:14:57;;;;;;;19.38;13.63;;;;;;;8.80;61.13;102175.22;4950196;28;20496;-68
2022/11/13 11:17:26;;;;;;;20.48;12.88;;;;;;;9.08;60.49;102161.47;4955722;28;20058;-67
2022/11/13 11:20:16;;;;;;;21.92;13.75;;;;;;;9.16;60.10;102158.25;4956152;28;20047;-67
2022/11/13 11:22:45;;;;;;;20.95;13.35;;;;;;;9.17;60.20;102161.78;4955147;28;20054;-67
2022/11/13 11:25:19;;;;;;;22.35;13.65;;;;;;;9.47;59.30;102156.81;4955596;28;20055;-67
2022/11/13 11:27:54;;;;;;;21.60;14.15;;;;;;;9.01;60.09;102149.53;4953744;28;20058;-67
2022/11/13 11:30:23;;;;;;;24.42;14.75;;;;;;;9.32;59.25;102152.59;4954602;28;20808;-69